Time;durP1;ratioP1;P1;durP2;ratioP2;P2;SDS_P1;SDS_P2;PMS_P1;PMS_P2;Temp;Humidity;BMP_temperature;BMP_pressure;BME280_temperature;BME280_humidity;BME280_pressure;Samples;Min_cycle;Max_cycle;Signal;HPM_P1;HPM_P2
2023/08/07 00:01:26;;;;;;;3.17;0.70;;;;;;;;;;5054735;28;20480;-90
2023/08/07 00:03:53;;;;;;;2.03;0.70;;;;;;;;;;5054749;28;20477;-89
2023/08/07 00:06:21;;;;;;;2.37;0.60;;;;;;;;;;5055069;28;20560;-90
2023/08/07 00:08:48;;;;;;;1.50;0.60;;;;;;;;;;5054895;28;20456;-89
2023/08/07 00:11:15;;;;;;;1.53;0.50;;;;;;;;;;5054247;28;20537;-89
2023/08/07 00:13:43;;;;;;;1.60;0.80;;;;;;;;;;5054843;28;20954;-89
2023/08/07 00:16:11;;;;;;;1.73;0.70;;;;;;;;;;5054721;28;20833;-89
2023/08/07 00:18:38;;;;;;;1.40;0.50;;;;;;;;;;5054276;28;20489;-89
2023/08/07 00:21:06;;;;;;;1.70;0.60;;;;;;;;;;5054294;28;20469;-90
2023/08/07 00:23:33;;;;;;;1.70;0.57;;;;;;;;;;5053658;28;20444;-90
2023/08/07 00:26:00;;;;;;;1.60;0.60;;;;;;;;;;5054194;28;20489;-90
2023/08/07 00:28:28;;;;;;;1.40;0.50;;;;;;;;;;5054464;28;20978;-89
2023/08/07 00:30:55;;;;;;;1.40;0.50;;;;;;;;;;5054242;28;20471;-89
2023/08/07 00:33:24;;;;;;;2.43;0.60;;;;;;;;;;5054093;28;20465;-89
2023/08/07 00:35:51;;;;;;;1.47;0.60;;;;;;;;;;5053833;28;21061;-90
2023/08/07 00:38:18;;;;;;;1.33;0.40;;;;;;;;;;5054513;28;20445;-89
2023/08/07 00:40:45;;;;;;;1.40;0.40;;;;;;;;;;5070974;28;20460;-89
2023/08/07 00:43:13;;;;;;;2.93;0.60;;;;;;;;;;5056231;28;20880;-90
2023/08/07 00:45:43;;;;;;;2.27;0.80;;;;;;;;;;5054184;28;20906;-89
2023/08/07 00:48:10;;;;;;;2.00;0.67;;;;;;;;;;5054111;28;20449;-91
2023/08/07 00:50:40;;;;;;;1.47;0.50;;;;;;;;;;5054229;28;20503;-89
2023/08/07 00:53:07;;;;;;;2.27;0.77;;;;;;;;;;5053631;28;20465;-90
2023/08/07 00:55:34;;;;;;;1.90;0.60;;;;;;;;;;5053272;28;20464;-89
2023/08/07 00:58:02;;;;;;;1.43;0.60;;;;;;;;;;5053518;28;20496;-90
2023/08/07 01:00:30;;;;;;;1.40;0.50;;;;;;;;;;5053785;28;20495;-90
2023/08/07 01:02:58;;;;;;;1.60;0.70;;;;;;;;;;5052892;28;20451;-91
2023/08/07 01:05:26;;;;;;;1.60;0.60;;;;;;;;;;5053803;28;20442;-89
2023/08/07 01:07:55;;;;;;;1.50;0.50;;;;;;;;;;5053190;28;20450;-90
2023/08/07 01:10:27;;;;;;;1.97;0.47;;;;;;;;;;5052503;28;21012;-89
2023/08/07 01:12:56;;;;;;;1.50;0.60;;;;;;;;;;5052493;28;20595;-90
2023/08/07 01:15:25;;;;;;;2.23;0.57;;;;;;;;;;5053067;28;20481;-89
2023/08/07 01:17:54;;;;;;;1.50;0.47;;;;;;;;;;5053429;28;20476;-90
2023/08/07 01:20:21;;;;;;;2.77;0.73;;;;;;;;;;5053619;28;20480;-89
2023/08/07 01:22:50;;;;;;;1.70;0.60;;;;;;;;;;5053463;28;20465;-90
2023/08/07 01:25:17;;;;;;;1.50;0.60;;;;;;;;;;5052963;28;20441;-89
2023/08/07 01:27:48;;;;;;;2.57;0.70;;;;;;;;;;5053295;28;20472;-89
2023/08/07 01:30:19;;;;;;;1.70;0.70;;;;;;;;;;5053694;28;20492;-90
2023/08/07 01:32:51;;;;;;;1.50;0.50;;;;;;;;;;5053127;28;20512;-90
2023/08/07 01:35:19;;;;;;;1.93;0.70;;;;;;;;;;5053509;28;20434;-89
2023/08/07 01:37:47;;;;;;;1.33;0.40;;;;;;;;;;5059885;23;20532;-55
2023/08/07 01:40:15;;;;;;;1.50;0.50;;;;;;;;;;5049582;28;21082;-53
2023/08/07 01:42:43;;;;;;;1.40;0.50;;;;;;;;;;5049720;28;20439;-55
2023/08/07 01:45:10;;;;;;;1.60;0.90;;;;;;;;;;5049783;28;20871;-55
2023/08/07 01:47:38;;;;;;;1.90;0.80;;;;;;;;;;5049476;28;20549;-55
2023/08/07 01:50:05;;;;;;;1.40;0.60;;;;;;;;;;5049966;28;20457;-55
2023/08/07 01:52:33;;;;;;;1.70;0.80;;;;;;;;;;5049860;28;20891;-55
2023/08/07 01:55:00;;;;;;;1.60;0.60;;;;;;;;;;5048917;28;20442;-53
2023/08/07 01:57:30;;;;;;;1.80;0.70;;;;;;;;;;5049445;28;20556;-56
2023/08/07 01:59:57;;;;;;;2.07;0.50;;;;;;;;;;5049869;28;20528;-55
2023/08/07 02:02:24;;;;;;;1.90;0.60;;;;;;;;;;5049183;28;20529;-55
2023/08/07 02:04:52;;;;;;;4.00;0.80;;;;;;;;;;5049283;28;20442;-55
2023/08/07 02:07:19;;;;;;;1.60;0.70;;;;;;;;;;5049951;28;20493;-56
2023/08/07 02:09:46;;;;;;;1.70;0.70;;;;;;;;;;5049605;28;20877;-55
2023/08/07 02:12:13;;;;;;;2.63;0.93;;;;;;;;;;5049453;28;20551;-55
2023/08/07 02:14:42;;;;;;;1.60;0.63;;;;;;;;;;5049837;28;20528;-55
2023/08/07 02:17:09;;;;;;;1.90;0.87;;;;;;;;;;5059510;23;20473;-90
2023/08/07 02:19:36;;;;;;;1.67;0.60;;;;;;;;;;5029357;28;20528;-92
2023/08/07 02:22:04;;;;;;;2.03;0.90;;;;;;;;;;5036919;28;20496;-91
2023/08/07 02:24:31;;;;;;;1.40;0.40;;;;;;;;;;5036372;28;20473;-92
2023/08/07 02:26:58;;;;;;;1.60;0.63;;;;;;;;;;5046653;28;20465;-92
2023/08/07 02:32:08;;;;;;;1.60;0.60;;;;;;;;;;5031218;28;20914;-55
2023/08/07 02:34:35;;;;;;;1.60;0.50;;;;;;;;;;5033599;28;20970;-54
2023/08/07 02:37:02;;;;;;;1.60;0.60;;;;;;;;;;5033699;28;20532;-55
2023/08/07 02:39:29;;;;;;;1.50;0.63;;;;;;;;;;5053153;28;20464;-55
2023/08/07 02:41:57;;;;;;;1.70;0.70;;;;;;;;;;5053023;28;20491;-54
2023/08/07 02:44:24;;;;;;;3.63;0.70;;;;;;;;;;5053281;28;20555;-55
2023/08/07 02:46:51;;;;;;;1.47;0.50;;;;;;;;;;5052660;28;20965;-57
2023/08/07 02:49:20;;;;;;;1.70;0.60;;;;;;;;;;5040533;28;20461;-58
2023/08/07 02:51:47;;;;;;;1.80;0.90;;;;;;;;;;5052497;28;20532;-57
2023/08/07 02:54:14;;;;;;;2.20;0.80;;;;;;;;;;5052857;28;20882;-58
2023/08/07 02:56:42;;;;;;;1.50;0.60;;;;;;;;;;5052594;28;20541;-57
2023/08/07 02:59:09;;;;;;;1.60;0.80;;;;;;;;;;5052944;28;20552;-56
2023/08/07 03:01:37;;;;;;;1.70;0.67;;;;;;;;;;5052608;28;20532;-57
2023/08/07 03:04:04;;;;;;;3.33;0.67;;;;;;;;;;5052523;28;20477;-58
2023/08/07 03:06:32;;;;;;;1.40;0.63;;;;;;;;;;5052705;28;20541;-57
2023/08/07 03:09:00;;;;;;;4.37;1.40;;;;;;;;;;5052524;28;20559;-54
2023/08/07 03:11:27;;;;;;;2.50;1.43;;;;;;;;;;5052525;28;20465;-55
2023/08/07 03:13:54;;;;;;;3.10;1.10;;;;;;;;;;5052637;28;20509;-55
2023/08/07 03:16:21;;;;;;;4.10;1.33;;;;;;;;;;5052416;28;20532;-55
2023/08/07 03:18:49;;;;;;;1.90;1.00;;;;;;;;;;5052487;28;20539;-55
2023/08/07 03:21:16;;;;;;;1.50;0.60;;;;;;;;;;5052113;28;20492;-55
2023/08/07 03:23:44;;;;;;;1.70;0.60;;;;;;;;;;5052673;28;20470;-54
2023/08/07 03:26:13;;;;;;;1.40;0.53;;;;;;;;;;5051948;28;20524;-56
2023/08/07 03:28:40;;;;;;;1.87;0.87;;;;;;;;;;5052542;28;20448;-55
2023/08/07 03:31:08;;;;;;;2.37;1.00;;;;;;;;;;5051565;28;20530;-55
2023/08/07 03:33:35;;;;;;;1.70;0.60;;;;;;;;;;5051910;28;20911;-55
2023/08/07 03:36:02;;;;;;;1.60;0.70;;;;;;;;;;5051850;28;20472;-56
2023/08/07 03:38:29;;;;;;;1.80;0.77;;;;;;;;;;5052554;28;20493;-56
2023/08/07 03:40:58;;;;;;;1.50;0.60;;;;;;;;;;5051531;28;20563;-57
2023/08/07 03:43:25;;;;;;;1.50;0.60;;;;;;;;;;5052188;28;20491;-55
2023/08/07 03:45:56;;;;;;;1.97;0.70;;;;;;;;;;5052028;28;20559;-57
2023/08/07 03:48:23;;;;;;;1.70;0.60;;;;;;;;;;5051708;28;20471;-55
2023/08/07 03:50:50;;;;;;;1.50;0.70;;;;;;;;;;5051300;28;20453;-56
2023/08/07 03:53:18;;;;;;;2.10;0.60;;;;;;;;;;5051799;28;20556;-55
2023/08/07 03:55:50;;;;;;;1.73;0.70;;;;;;;;;;5051851;28;20477;-55
2023/08/07 03:58:19;;;;;;;1.40;0.60;;;;;;;;;;5051307;28;20466;-55
2023/08/07 04:00:46;;;;;;;3.87;0.80;;;;;;;;;;5051378;28;20782;-55
2023/08/07 04:03:13;;;;;;;1.60;0.70;;;;;;;;;;5051299;28;20445;-55
2023/08/07 04:05:40;;;;;;;1.50;0.60;;;;;;;;;;5051291;28;20478;-55
2023/08/07 04:08:08;;;;;;;2.73;0.70;;;;;;;;;;5052030;28;20577;-55
2023/08/07 04:10:35;;;;;;;1.60;0.70;;;;;;;;;;5051490;28;20445;-55
2023/08/07 04:13:03;;;;;;;1.50;0.67;;;;;;;;;;5051129;28;20473;-54
2023/08/07 04:15:31;;;;;;;3.50;1.03;;;;;;;;;;5051706;28;20445;-56
2023/08/07 04:17:59;;;;;;;2.70;1.00;;;;;;;;;;5051672;28;20605;-55
2023/08/07 04:20:26;;;;;;;1.50;0.67;;;;;;;;;;5051056;28;20532;-55
2023/08/07 04:22:53;;;;;;;1.93;1.00;;;;;;;;;;5050361;28;20525;-55
2023/08/07 04:25:20;;;;;;;1.50;0.70;;;;;;;;;;5051085;28;20528;-56
2023/08/07 04:27:47;;;;;;;5.30;0.90;;;;;;;;;;5051120;28;20993;-54
2023/08/07 04:30:15;;;;;;;1.60;0.70;;;;;;;;;;5050537;28;20511;-57
2023/08/07 04:32:43;;;;;;;2.10;0.97;;;;;;;;;;5051118;28;20505;-55
2023/08/07 04:35:10;;;;;;;1.80;0.80;;;;;;;;;;5050971;28;20477;-56
2023/08/07 04:37:38;;;;;;;1.67;0.80;;;;;;;;;;5050399;28;20497;-55
2023/08/07 04:40:06;;;;;;;1.60;0.60;;;;;;;;;;5050525;28;20579;-57
2023/08/07 04:42:34;;;;;;;2.10;1.00;;;;;;;;;;5050642;28;20441;-54
2023/08/07 04:45:01;;;;;;;2.47;0.97;;;;;;;;;;5051064;28;20496;-56
2023/08/07 04:47:29;;;;;;;1.70;0.90;;;;;;;;;;5050223;28;20973;-54
2023/08/07 04:49:58;;;;;;;1.73;0.80;;;;;;;;;;5050392;28;20529;-55
2023/08/07 04:52:25;;;;;;;1.60;0.80;;;;;;;;;;5049469;28;20862;-55
2023/08/07 04:54:52;;;;;;;1.77;0.90;;;;;;;;;;5050309;28;21044;-55
2023/08/07 04:57:19;;;;;;;1.67;0.77;;;;;;;;;;5050632;28;20562;-54
2023/08/07 04:59:47;;;;;;;1.97;1.07;;;;;;;;;;5050562;28;20528;-55
2023/08/07 05:02:14;;;;;;;1.90;1.00;;;;;;;;;;5048328;28;20964;-55
2023/08/07 05:04:41;;;;;;;2.13;1.00;;;;;;;;;;5047395;28;20455;-55
2023/08/07 05:07:10;;;;;;;1.63;0.73;;;;;;;;;;5030791;28;20517;-55
2023/08/07 05:09:37;;;;;;;2.57;1.10;;;;;;;;;;5048083;28;20541;-54
2023/08/07 05:12:05;;;;;;;3.00;0.90;;;;;;;;;;5045921;28;20473;-55
2023/08/07 05:14:32;;;;;;;2.20;1.20;;;;;;;;;;5049942;28;20909;-53
2023/08/07 05:16:59;;;;;;;1.87;1.10;;;;;;;;;;5049879;28;20949;-55
2023/08/07 05:19:26;;;;;;;1.73;0.93;;;;;;;;;;5049239;28;20447;-55
2023/08/07 05:21:54;;;;;;;2.40;1.03;;;;;;;;;;5049754;28;20529;-55
2023/08/07 05:24:22;;;;;;;2.10;1.03;;;;;;;;;;5049399;28;20469;-54
2023/08/07 05:26:50;;;;;;;2.00;1.13;;;;;;;;;;5049914;28;20478;-56
2023/08/07 05:29:17;;;;;;;2.20;1.10;;;;;;;;;;5049844;28;20545;-57
2023/08/07 05:31:44;;;;;;;3.10;1.37;;;;;;;;;;5048845;28;21035;-55
2023/08/07 05:34:11;;;;;;;2.27;1.30;;;;;;;;;;5050103;28;20505;-56
2023/08/07 05:36:39;;;;;;;5.87;1.10;;;;;;;;;;5050454;28;20525;-57
2023/08/07 05:39:07;;;;;;;2.00;1.10;;;;;;;;;;5049995;28;20493;-54
2023/08/07 05:41:35;;;;;;;1.83;1.07;;;;;;;;;;5049452;28;20495;-55
2023/08/07 05:44:02;;;;;;;2.30;1.23;;;;;;;;;;5050248;28;20487;-54
2023/08/07 05:46:30;;;;;;;2.30;1.37;;;;;;;;;;5049720;28;20473;-57
2023/08/07 05:48:57;;;;;;;3.30;1.40;;;;;;;;;;5049305;28;20481;-55
2023/08/07 05:51:24;;;;;;;2.23;1.50;;;;;;;;;;5053270;28;20528;-55
2023/08/07 05:53:51;;;;;;;2.60;1.10;;;;;;;;;;5053143;28;20556;-54
2023/08/07 05:56:19;;;;;;;2.30;1.20;;;;;;;;;;5052965;28;20444;-57
2023/08/07 05:58:47;;;;;;;4.10;1.67;;;;;;;;;;5053227;28;20492;-55
2023/08/07 06:01:16;;;;;;;2.03;1.23;;;;;;;;;;5053112;28;20499;-55
2023/08/07 06:03:43;;;;;;;2.23;1.37;;;;;;;;;;5053035;28;20460;-54
2023/08/07 06:06:11;;;;;;;1.90;1.20;;;;;;;;;;5053851;28;20471;-55
2023/08/07 06:08:38;;;;;;;3.63;1.50;;;;;;;;;;5053909;28;20503;-55
2023/08/07 06:11:08;;;;;;;2.00;1.10;;;;;;;;;;5052229;28;20548;-55
2023/08/07 06:13:35;;;;;;;2.30;1.37;;;;;;;;;;5052716;28;20857;-56
2023/08/07 06:16:03;;;;;;;2.10;1.10;;;;;;;;;;5053400;28;20503;-54
2023/08/07 06:18:31;;;;;;;2.27;1.30;;;;;;;;;;5053139;28;20465;-55
2023/08/07 06:20:58;;;;;;;3.50;1.30;;;;;;;;;;5053334;28;20533;-55
2023/08/07 06:23:25;;;;;;;1.70;1.10;;;;;;;;;;5053650;28;20575;-56
2023/08/07 06:25:52;;;;;;;2.00;1.20;;;;;;;;;;5052455;28;20532;-55
2023/08/07 06:28:20;;;;;;;4.17;1.50;;;;;;;;;;5051809;28;20544;-55
2023/08/07 06:30:47;;;;;;;2.03;1.30;;;;;;;;;;5051239;28;20445;-55
2023/08/07 06:33:16;;;;;;;1.73;1.10;;;;;;;;;;5051966;28;20560;-55
2023/08/07 06:35:43;;;;;;;1.80;1.17;;;;;;;;;;5051921;28;20445;-55
2023/08/07 06:38:11;;;;;;;2.10;1.13;;;;;;;;;;5051621;28;21069;-55
2023/08/07 06:40:39;;;;;;;2.37;0.80;;;;;;;;;;5051649;28;20441;-56
2023/08/07 06:43:06;;;;;;;2.27;1.50;;;;;;;;;;5053352;28;20441;-55
2023/08/07 06:45:34;;;;;;;2.13;1.20;;;;;;;;;;5048734;28;20503;-55
2023/08/07 06:48:01;;;;;;;2.00;1.10;;;;;;;;;;5046145;28;20556;-55
2023/08/07 06:50:29;;;;;;;3.97;2.20;;;;;;;;;;5052343;28;20545;-54
2023/08/07 06:52:57;;;;;;;2.50;1.17;;;;;;;;;;5043804;28;20528;-55
2023/08/07 06:55:24;;;;;;;1.57;0.67;;;;;;;;;;5052296;28;20441;-55
2023/08/07 06:57:51;;;;;;;2.27;1.20;;;;;;;;;;5049523;28;20575;-55
2023/08/07 07:00:19;;;;;;;2.87;1.10;;;;;;;;;;5040542;28;20557;-55
2023/08/07 07:02:46;;;;;;;3.10;1.80;;;;;;;;;;5046163;28;20477;-56
2023/08/07 07:05:13;;;;;;;2.20;1.47;;;;;;;;;;5051402;28;20704;-55
2023/08/07 07:07:42;;;;;;;2.23;1.30;;;;;;;;;;5051995;28;20602;-55
2023/08/07 07:10:09;;;;;;;2.53;1.30;;;;;;;;;;5050848;28;20527;-55
2023/08/07 07:12:37;;;;;;;3.03;0.87;;;;;;;;;;5048957;28;20485;-55
2023/08/07 07:15:04;;;;;;;1.83;1.00;;;;;;;;;;5039916;28;20846;-55
2023/08/07 07:17:31;;;;;;;1.90;1.03;;;;;;;;;;5038461;28;20544;-56
2023/08/07 07:19:59;;;;;;;2.20;1.20;;;;;;;;;;5047652;28;20434;-55
2023/08/07 07:22:26;;;;;;;1.73;0.80;;;;;;;;;;5047656;28;20836;-55
2023/08/07 07:24:55;;;;;;;1.93;0.90;;;;;;;;;;5050613;28;20475;-54
2023/08/07 07:27:22;;;;;;;1.90;0.80;;;;;;;;;;5051570;28;20748;-55
2023/08/07 07:29:49;;;;;;;3.53;0.80;;;;;;;;;;5051532;28;20528;-55
2023/08/07 07:32:16;;;;;;;1.80;0.90;;;;;;;;;;5047293;28;20534;-56
2023/08/07 07:34:44;;;;;;;1.70;1.00;;;;;;;;;;5048318;28;20569;-55
2023/08/07 07:37:14;;;;;;;1.90;0.80;;;;;;;;;;5040956;28;20990;-55
2023/08/07 07:39:41;;;;;;;1.50;0.60;;;;;;;;;;5044756;28;20442;-55
2023/08/07 07:42:10;;;;;;;2.10;0.90;;;;;;;;;;5051287;28;20448;-55
2023/08/07 07:44:38;;;;;;;1.97;0.63;;;;;;;;;;5052188;28;20520;-55
2023/08/07 07:47:06;;;;;;;2.07;0.80;;;;;;;;;;5051406;28;20944;-56
2023/08/07 07:49:34;;;;;;;1.50;0.60;;;;;;;;;;5041791;28;20496;-57
2023/08/07 07:52:01;;;;;;;1.60;0.80;;;;;;;;;;5051499;28;20510;-56
2023/08/07 07:54:30;;;;;;;2.13;0.90;;;;;;;;;;5051494;28;20857;-55
2023/08/07 07:56:57;;;;;;;1.80;0.80;;;;;;;;;;5049770;28;20441;-54
2023/08/07 07:59:26;;;;;;;2.10;0.70;;;;;;;;;;5051485;28;20462;-55
2023/08/07 08:01:53;;;;;;;1.73;0.80;;;;;;;;;;5051617;28;20929;-54
2023/08/07 08:04:21;;;;;;;1.80;0.70;;;;;;;;;;5044881;28;20920;-55
2023/08/07 08:06:48;;;;;;;1.90;0.80;;;;;;;;;;5035543;28;20446;-57
2023/08/07 08:09:15;;;;;;;1.97;0.67;;;;;;;;;;5051594;28;20552;-55
2023/08/07 08:11:43;;;;;;;1.70;0.87;;;;;;;;;;5043379;28;20521;-55
2023/08/07 08:14:10;;;;;;;1.90;0.87;;;;;;;;;;5033938;28;20506;-56
2023/08/07 08:16:39;;;;;;;1.60;0.57;;;;;;;;;;5036697;28;20516;-55
2023/08/07 08:19:08;;;;;;;1.70;0.80;;;;;;;;;;5060495;23;20518;-89
2023/08/07 08:21:35;;;;;;;2.10;0.60;;;;;;;;;;5035104;28;20465;-90
2023/08/07 08:24:02;;;;;;;1.60;0.60;;;;;;;;;;5035031;28;20470;-89
2023/08/07 08:26:30;;;;;;;2.00;1.07;;;;;;;;;;5036110;28;20501;-89
2023/08/07 08:28:57;;;;;;;2.33;0.80;;;;;;;;;;5034993;28;20440;-88
2023/08/07 08:31:24;;;;;;;1.80;0.70;;;;;;;;;;5038911;23;20499;-54
2023/08/07 08:33:53;;;;;;;1.70;0.80;;;;;;;;;;5001023;28;21182;-54
2023/08/07 08:36:20;;;;;;;1.67;0.70;;;;;;;;;;5008704;28;20483;-53
2023/08/07 08:38:48;;;;;;;2.20;0.97;;;;;;;;;;5003343;28;20542;-53
2023/08/07 08:41:15;;;;;;;1.63;0.63;;;;;;;;;;5011091;28;20447;-53
2023/08/07 08:43:43;;;;;;;2.03;0.67;;;;;;;;;;5003348;28;20497;-53
2023/08/07 08:46:10;;;;;;;1.83;0.70;;;;;;;;;;5010449;28;20498;-54
2023/08/07 08:48:39;;;;;;;1.93;0.70;;;;;;;;;;5010610;28;21002;-54
2023/08/07 08:51:11;;;;;;;1.70;0.70;;;;;;;;;;5007311;28;20711;-54
2023/08/07 08:53:38;;;;;;;1.50;0.60;;;;;;;;;;5008854;28;20451;-53
2023/08/07 08:56:06;;;;;;;1.50;0.70;;;;;;;;;;5008227;28;20475;-53
2023/08/07 08:58:34;;;;;;;1.70;0.70;;;;;;;;;;5008558;28;20554;-54
2023/08/07 09:01:01;;;;;;;2.47;0.80;;;;;;;;;;5008043;28;20443;-54
2023/08/07 09:03:29;;;;;;;1.63;0.70;;;;;;;;;;5006469;28;20514;-53
2023/08/07 09:06:00;;;;;;;1.70;0.70;;;;;;;;;;5009606;28;20471;-53
2023/08/07 09:08:30;;;;;;;1.60;0.53;;;;;;;;;;5009793;28;20465;-54
2023/08/07 09:10:57;;;;;;;1.43;0.50;;;;;;;;;;5010089;28;20881;-53
2023/08/07 09:13:25;;;;;;;1.60;0.70;;;;;;;;;;5009484;28;20538;-53
2023/08/07 09:15:52;;;;;;;1.60;0.70;;;;;;;;;;5008393;28;20558;-53
2023/08/07 09:18:20;;;;;;;1.80;0.70;;;;;;;;;;5006961;28;20546;-53
2023/08/07 09:20:48;;;;;;;1.80;0.87;;;;;;;;;;5006670;28;21089;-53
2023/08/07 09:23:17;;;;;;;1.50;0.60;;;;;;;;;;5005759;28;20783;-53
2023/08/07 09:25:46;;;;;;;1.73;0.80;;;;;;;;;;4999694;28;20955;-54
2023/08/07 09:28:13;;;;;;;1.80;0.70;;;;;;;;;;5003074;28;20482;-53
2023/08/07 09:30:42;;;;;;;1.50;0.70;;;;;;;;;;5009373;28;20558;-54
2023/08/07 09:33:10;;;;;;;1.83;0.93;;;;;;;;;;5010695;28;20439;-54
2023/08/07 09:35:37;;;;;;;1.63;0.80;;;;;;;;;;5009039;28;21006;-52
2023/08/07 09:38:04;;;;;;;2.37;0.83;;;;;;;;;;5008833;28;20463;-54
2023/08/07 09:40:31;;;;;;;3.00;0.70;;;;;;;;;;5009081;28;20517;-54
2023/08/07 09:43:03;;;;;;;1.63;0.73;;;;;;;;;;5007503;28;21056;-54
2023/08/07 09:45:31;;;;;;;1.87;0.90;;;;;;;;;;4996791;28;20546;-54
2023/08/07 09:47:59;;;;;;;1.40;0.50;;;;;;;;;;5005936;28;20475;-54
2023/08/07 09:50:27;;;;;;;1.70;0.70;;;;;;;;;;5006891;28;20443;-55
2023/08/07 09:52:55;;;;;;;2.13;0.70;;;;;;;;;;5005695;28;20459;-55
2023/08/07 09:55:23;;;;;;;2.00;0.90;;;;;;;;;;5002306;28;20986;-54
2023/08/07 09:57:50;;;;;;;1.57;0.70;;;;;;;;;;5008143;28;20498;-55
2023/08/07 10:00:20;;;;;;;1.83;0.70;;;;;;;;;;5009471;28;20450;-53
2023/08/07 10:02:49;;;;;;;1.77;0.80;;;;;;;;;;5001767;28;20459;-54
2023/08/07 10:05:16;;;;;;;2.17;1.00;;;;;;;;;;5010306;28;20535;-54
2023/08/07 10:07:44;;;;;;;2.57;1.00;;;;;;;;;;5009598;28;20903;-55
2023/08/07 10:10:11;;;;;;;1.90;0.70;;;;;;;;;;5009717;28;20999;-54
2023/08/07 10:12:39;;;;;;;2.10;0.90;;;;;;;;;;5008951;28;20449;-56
2023/08/07 10:15:07;;;;;;;2.13;0.80;;;;;;;;;;5007389;28;20894;-56
2023/08/07 10:17:35;;;;;;;1.60;0.77;;;;;;;;;;5008153;28;20467;-56
2023/08/07 10:20:04;;;;;;;2.43;0.80;;;;;;;;;;5007709;28;20994;-56
2023/08/07 10:22:32;;;;;;;2.10;1.00;;;;;;;;;;4999791;28;20479;-56
2023/08/07 10:25:00;;;;;;;2.80;1.10;;;;;;;;;;5007194;28;20935;-56
2023/08/07 10:27:28;;;;;;;5.13;2.43;;;;;;;;;;4998804;28;20936;-56
2023/08/07 10:29:58;;;;;;;1.83;0.70;;;;;;;;;;5007537;28;20462;-56
2023/08/07 10:32:26;;;;;;;2.30;1.00;;;;;;;;;;5008763;28;20542;-56
2023/08/07 10:34:55;;;;;;;2.10;0.83;;;;;;;;;;5008135;28;20601;-55
2023/08/07 10:37:40;;;;;;;2.33;0.90;;;;;;;;;;5004107;28;20447;-57
2023/08/07 10:40:09;;;;;;;1.97;0.90;;;;;;;;;;5012663;28;20538;-57
2023/08/07 10:42:51;;;;;;;1.70;0.70;;;;;;;;;;5013190;28;20935;-54
2023/08/07 10:45:21;;;;;;;2.23;0.60;;;;;;;;;;5002275;28;20467;-54
2023/08/07 10:47:58;;;;;;;1.50;0.70;;;;;;;;;;4994155;28;20466;-54
2023/08/07 10:50:30;;;;;;;1.83;0.83;;;;;;;;;;4994044;28;20975;-56
2023/08/07 10:52:57;;;;;;;1.97;0.70;;;;;;;;;;4994111;28;20818;-56
2023/08/07 10:55:25;;;;;;;1.60;0.70;;;;;;;;;;4993905;28;21046;-56
2023/08/07 10:57:53;;;;;;;1.90;0.60;;;;;;;;;;4993573;28;20470;-55
2023/08/07 11:00:27;;;;;;;1.90;0.90;;;;;;;;;;4992112;28;20537;-56
2023/08/07 11:02:54;;;;;;;2.43;0.97;;;;;;;;;;5010809;28;20445;-56
2023/08/07 11:05:22;;;;;;;1.60;0.70;;;;;;;;;;5008821;28;20825;-56
2023/08/07 11:07:50;;;;;;;2.13;0.80;;;;;;;;;;5013106;28;20459;-55
2023/08/07 11:10:18;;;;;;;2.50;1.20;;;;;;;;;;5003623;28;20520;-55
2023/08/07 11:12:45;;;;;;;3.50;0.73;;;;;;;;;;5010768;28;20534;-56
2023/08/07 11:15:15;;;;;;;1.70;0.70;;;;;;;;;;5010576;28;20806;-56
2023/08/07 11:17:42;;;;;;;1.43;0.60;;;;;;;;;;5011827;28;20546;-56
2023/08/07 11:20:11;;;;;;;1.80;0.70;;;;;;;;;;5004040;28;20535;-54
2023/08/07 11:22:41;;;;;;;1.60;0.60;;;;;;;;;;5011456;28;20538;-54
2023/08/07 11:25:13;;;;;;;1.40;0.60;;;;;;;;;;5010864;28;20527;-54
2023/08/07 11:27:41;;;;;;;2.87;0.60;;;;;;;;;;5003372;28;20544;-53
2023/08/07 11:30:12;;;;;;;1.60;0.80;;;;;;;;;;5008842;28;20518;-54
2023/08/07 11:32:40;;;;;;;1.80;0.80;;;;;;;;;;5011027;28;20534;-55
2023/08/07 11:35:08;;;;;;;1.60;0.50;;;;;;;;;;5009989;28;20478;-54
2023/08/07 11:37:35;;;;;;;2.30;0.77;;;;;;;;;;5007891;28;20558;-54
2023/08/07 11:40:03;;;;;;;2.00;0.60;;;;;;;;;;5012306;28;20522;-54
2023/08/07 11:42:32;;;;;;;2.00;0.80;;;;;;;;;;5012640;28;20466;-55
2023/08/07 11:44:59;;;;;;;2.00;0.80;;;;;;;;;;5012143;28;20435;-54
2023/08/07 11:47:26;;;;;;;2.03;0.60;;;;;;;;;;5011259;28;20490;-54
2023/08/07 11:49:54;;;;;;;2.37;0.90;;;;;;;;;;5012307;28;20526;-54
2023/08/07 11:52:23;;;;;;;2.50;0.80;;;;;;;;;;5011946;28;20471;-53
2023/08/07 11:54:50;;;;;;;1.70;0.70;;;;;;;;;;5004558;28;20975;-54
2023/08/07 11:57:18;;;;;;;2.07;0.80;;;;;;;;;;5003497;28;20455;-54
2023/08/07 11:59:51;;;;;;;2.37;0.60;;;;;;;;;;5012411;28;20443;-54
2023/08/07 12:02:18;;;;;;;1.60;0.60;;;;;;;;;;5011533;28;20443;-54
2023/08/07 12:04:45;;;;;;;1.77;0.60;;;;;;;;;;5012168;28;20530;-54
2023/08/07 12:07:13;;;;;;;1.60;0.60;;;;;;;;;;5010136;28;20440;-54
2023/08/07 12:09:40;;;;;;;1.40;0.70;;;;;;;;;;5006088;28;21058;-54
2023/08/07 12:12:08;;;;;;;2.10;0.77;;;;;;;;;;5011730;28;20435;-54
2023/08/07 12:14:37;;;;;;;1.60;0.63;;;;;;;;;;5011899;28;20494;-54
2023/08/07 12:17:06;;;;;;;1.97;0.93;;;;;;;;;;5011832;28;20538;-54
2023/08/07 12:19:40;;;;;;;1.60;0.77;;;;;;;;;;5011638;28;20466;-54
2023/08/07 12:22:08;;;;;;;1.80;0.70;;;;;;;;;;5011651;28;20857;-54
2023/08/07 12:24:37;;;;;;;1.73;0.60;;;;;;;;;;5011977;28;20447;-54
2023/08/07 12:27:05;;;;;;;2.13;0.63;;;;;;;;;;5011548;28;20533;-54
2023/08/07 12:29:32;;;;;;;1.70;0.60;;;;;;;;;;5011422;28;20881;-55
2023/08/07 12:32:01;;;;;;;1.60;0.50;;;;;;;;;;5011411;28;20950;-54
2023/08/07 12:34:29;;;;;;;1.90;0.73;;;;;;;;;;5011767;28;20439;-55
2023/08/07 12:36:57;;;;;;;1.97;0.60;;;;;;;;;;5011580;28;20483;-54
2023/08/07 12:39:24;;;;;;;2.60;0.63;;;;;;;;;;5003308;28;20521;-54
2023/08/07 12:41:51;;;;;;;1.40;0.50;;;;;;;;;;5011394;28;20526;-54
2023/08/07 12:44:18;;;;;;;1.83;0.60;;;;;;;;;;5011018;28;20526;-54
2023/08/07 12:46:46;;;;;;;1.60;0.70;;;;;;;;;;5010660;28;20518;-54
2023/08/07 12:49:13;;;;;;;2.00;0.70;;;;;;;;;;5011051;28;20502;-54
2023/08/07 12:51:42;;;;;;;2.03;0.50;;;;;;;;;;4999519;28;20805;-54
2023/08/07 12:54:09;;;;;;;2.10;1.03;;;;;;;;;;5007944;28;20439;-54
2023/08/07 12:56:37;;;;;;;2.90;0.83;;;;;;;;;;5004244;28;21104;-54
2023/08/07 12:59:04;;;;;;;1.50;0.60;;;;;;;;;;5010629;28;20931;-54
2023/08/07 13:01:31;;;;;;;1.57;0.70;;;;;;;;;;5010443;28;20439;-54
2023/08/07 13:03:58;;;;;;;1.50;0.50;;;;;;;;;;5011161;28;21011;-54
2023/08/07 13:06:25;;;;;;;1.50;0.60;;;;;;;;;;5007457;28;20472;-54
2023/08/07 13:08:54;;;;;;;1.90;0.80;;;;;;;;;;5006361;28;20502;-54
2023/08/07 13:11:21;;;;;;;1.80;0.57;;;;;;;;;;5011269;28;20466;-54
2023/08/07 13:13:49;;;;;;;2.87;0.80;;;;;;;;;;5010919;28;21009;-54
2023/08/07 13:16:16;;;;;;;1.60;0.60;;;;;;;;;;5008587;28;20483;-54
2023/08/07 13:18:43;;;;;;;1.60;0.50;;;;;;;;;;5000981;28;20550;-58
2023/08/07 13:21:10;;;;;;;2.20;0.87;;;;;;;;;;5014057;28;20522;-58
2023/08/07 13:23:37;;;;;;;1.40;0.40;;;;;;;;;;5012142;28;20448;-58
2023/08/07 13:26:06;;;;;;;1.73;0.60;;;;;;;;;;5010277;28;20467;-57
2023/08/07 13:28:33;;;;;;;3.50;0.60;;;;;;;;;;5011014;28;20463;-57
2023/08/07 13:31:01;;;;;;;1.60;0.60;;;;;;;;;;5010762;28;20475;-60
2023/08/07 13:33:28;;;;;;;1.83;0.70;;;;;;;;;;5010663;28;20497;-60
2023/08/07 13:35:56;;;;;;;1.80;0.83;;;;;;;;;;5009319;28;21117;-59
2023/08/07 13:38:23;;;;;;;1.50;0.50;;;;;;;;;;5002521;28;20485;-60
2023/08/07 13:40:51;;;;;;;1.60;0.60;;;;;;;;;;5010731;28;20529;-61
2023/08/07 13:43:19;;;;;;;1.40;0.50;;;;;;;;;;5010941;28;20525;-60
2023/08/07 13:45:47;;;;;;;2.00;0.60;;;;;;;;;;5010938;28;20534;-62
2023/08/07 13:48:14;;;;;;;2.33;0.80;;;;;;;;;;5010546;28;20469;-59
2023/08/07 13:50:41;;;;;;;1.67;0.63;;;;;;;;;;5010929;28;20475;-63
2023/08/07 13:53:08;;;;;;;1.83;0.60;;;;;;;;;;5011250;28;20439;-60
2023/08/07 13:55:36;;;;;;;1.80;0.70;;;;;;;;;;5012026;28;20527;-59
2023/08/07 13:58:03;;;;;;;1.77;0.60;;;;;;;;;;5013230;28;20471;-59
2023/08/07 14:00:34;;;;;;;1.60;0.67;;;;;;;;;;5013390;28;20439;-59
2023/08/07 14:03:01;;;;;;;1.70;0.70;;;;;;;;;;5014263;28;20447;-59
2023/08/07 14:05:28;;;;;;;1.50;0.47;;;;;;;;;;5014136;28;20998;-59
2023/08/07 14:07:57;;;;;;;1.40;0.60;;;;;;;;;;5013950;28;20902;-59
2023/08/07 14:10:24;;;;;;;1.70;0.80;;;;;;;;;;5014139;28;20447;-59
2023/08/07 14:12:52;;;;;;;1.50;0.53;;;;;;;;;;5016103;28;20569;-61
2023/08/07 14:15:20;;;;;;;1.50;0.73;;;;;;;;;;5015480;28;20443;-61
2023/08/07 14:18:02;;;;;;;1.70;0.60;;;;;;;;;;5030131;23;20497;-95
2023/08/07 14:20:49;;;;;;;2.17;0.97;;;;;;;;;;5039785;28;20442;-94
2023/08/07 14:23:17;;;;;;;1.73;0.70;;;;;;;;;;5019878;28;20454;-89
2023/08/07 14:25:45;;;;;;;2.87;1.50;;;;;;;;;;5017719;28;20872;-89
2023/08/07 14:28:12;;;;;;;4.03;2.17;;;;;;;;;;5017898;28;20962;-91
2023/08/07 14:33:09;;;;;;;2.87;0.93;;;;;;;;;;5029282;28;20469;-53
2023/08/07 14:35:36;;;;;;;2.10;0.90;;;;;;;;;;5032035;28;20577;-55
2023/08/07 14:38:05;;;;;;;1.87;0.77;;;;;;;;;;5025511;28;21023;-54
2023/08/07 14:40:32;;;;;;;3.13;0.70;;;;;;;;;;5032435;28;20473;-52
2023/08/07 14:43:00;;;;;;;2.10;0.90;;;;;;;;;;5031982;28;20895;-52
2023/08/07 14:45:27;;;;;;;1.60;0.60;;;;;;;;;;5032951;28;20516;-52
2023/08/07 14:47:54;;;;;;;1.73;0.87;;;;;;;;;;5032453;28;20462;-53
2023/08/07 14:50:21;;;;;;;2.20;0.90;;;;;;;;;;5032550;28;20438;-51
2023/08/07 14:52:48;;;;;;;1.80;0.70;;;;;;;;;;5031524;28;20492;-51